sensor_id;sensor_type;location;lat;lon;timestamp;P1;durP1;ratioP1;P2;durP2;ratioP2
17494;SDS011;8864;51.970;4.614;2022-12-07T00:01:35;5.22;;;1.30;;
17494;SDS011;8864;51.970;4.614;2022-12-07T00:04:04;3.55;;;1.35;;
17494;SDS011;8864;51.970;4.614;2022-12-07T00:06:32;3.35;;;1.42;;
17494;SDS011;8864;51.970;4.614;2022-12-07T00:09:02;4.03;;;1.38;;
17494;SDS011;8864;51.970;4.614;2022-12-07T00:11:30;2.47;;;1.30;;
17494;SDS011;8864;51.970;4.614;2022-12-07T00:13:57;4.88;;;1.38;;
17494;SDS011;8864;51.970;4.614;2022-12-07T00:16:27;3.15;;;1.55;;
17494;SDS011;8864;51.970;4.614;2022-12-07T00:18:55;2.33;;;1.20;;
17494;SDS011;8864;51.970;4.614;2022-12-07T00:21:23;6.53;;;1.17;;
17494;SDS011;8864;51.970;4.614;2022-12-07T00:23:52;2.53;;;1.30;;
17494;SDS011;8864;51.970;4.614;2022-12-07T00:26:23;2.40;;;1.20;;
17494;SDS011;8864;51.970;4.614;2022-12-07T00:28:51;3.95;;;1.10;;
17494;SDS011;8864;51.970;4.614;2022-12-07T00:31:20;2.60;;;1.10;;
17494;SDS011;8864;51.970;4.614;2022-12-07T00:33:49;4.28;;;1.20;;
17494;SDS011;8864;51.970;4.614;2022-12-07T00:36:16;4.30;;;1.50;;
17494;SDS011;8864;51.970;4.614;2022-12-07T00:38:44;2.78;;;1.13;;
17494;SDS011;8864;51.970;4.614;2022-12-07T00:41:12;2.22;;;1.20;;
17494;SDS011;8864;51.970;4.614;2022-12-07T00:43:42;2.95;;;1.30;;
17494;SDS011;8864;51.970;4.614;2022-12-07T00:46:10;2.63;;;1.10;;
17494;SDS011;8864;51.970;4.614;2022-12-07T00:48:37;2.60;;;1.10;;
17494;SDS011;8864;51.970;4.614;2022-12-07T00:51:05;2.38;;;1.17;;
17494;SDS011;8864;51.970;4.614;2022-12-07T00:53:33;1.67;;;0.90;;
17494;SDS011;8864;51.970;4.614;2022-12-07T00:56:04;4.68;;;1.33;;
17494;SDS011;8864;51.970;4.614;2022-12-07T00:58:31;4.22;;;1.10;;
17494;SDS011;8864;51.970;4.614;2022-12-07T01:01:00;4.95;;;1.52;;
17494;SDS011;8864;51.970;4.614;2022-12-07T01:03:29;4.80;;;1.10;;
17494;SDS011;8864;51.970;4.614;2022-12-07T01:05:56;2.85;;;0.85;;
17494;SDS011;8864;51.970;4.614;2022-12-07T01:08:24;1.48;;;0.88;;
17494;SDS011;8864;51.970;4.614;2022-12-07T01:10:57;2.67;;;0.90;;
17494;SDS011;8864;51.970;4.614;2022-12-07T01:13:25;2.40;;;0.90;;
17494;SDS011;8864;51.970;4.614;2022-12-07T01:15:55;5.53;;;1.20;;
17494;SDS011;8864;51.970;4.614;2022-12-07T01:18:24;3.08;;;0.90;;
17494;SDS011;8864;51.970;4.614;2022-12-07T01:20:58;3.85;;;1.00;;
17494;SDS011;8864;51.970;4.614;2022-12-07T01:23:26;1.88;;;0.90;;
17494;SDS011;8864;51.970;4.614;2022-12-07T01:25:54;1.00;;;0.70;;
17494;SDS011;8864;51.970;4.614;2022-12-07T01:28:21;2.85;;;1.20;;
17494;SDS011;8864;51.970;4.614;2022-12-07T01:30:54;3.05;;;1.20;;
17494;SDS011;8864;51.970;4.614;2022-12-07T01:33:22;2.72;;;1.20;;
17494;SDS011;8864;51.970;4.614;2022-12-07T01:35:52;2.10;;;0.88;;
17494;SDS011;8864;51.970;4.614;2022-12-07T01:38:19;3.60;;;1.20;;
17494;SDS011;8864;51.970;4.614;2022-12-07T01:40:52;2.17;;;0.98;;
17494;SDS011;8864;51.970;4.614;2022-12-07T01:43:20;2.08;;;0.80;;
17494;SDS011;8864;51.970;4.614;2022-12-07T01:45:48;2.53;;;1.10;;
17494;SDS011;8864;51.970;4.614;2022-12-07T01:48:16;1.90;;;1.02;;
17494;SDS011;8864;51.970;4.614;2022-12-07T01:50:47;1.95;;;0.90;;
17494;SDS011;8864;51.970;4.614;2022-12-07T01:53:16;2.50;;;0.95;;
17494;SDS011;8864;51.970;4.614;2022-12-07T01:55:44;2.10;;;0.70;;
17494;SDS011;8864;51.970;4.614;2022-12-07T01:58:15;2.75;;;1.00;;
17494;SDS011;8864;51.970;4.614;2022-12-07T02:00:43;3.42;;;0.90;;
17494;SDS011;8864;51.970;4.614;2022-12-07T02:03:11;1.52;;;0.70;;
17494;SDS011;8864;51.970;4.614;2022-12-07T02:05:42;3.63;;;0.80;;
17494;SDS011;8864;51.970;4.614;2022-12-07T02:08:11;2.83;;;0.90;;
17494;SDS011;8864;51.970;4.614;2022-12-07T02:10:39;3.35;;;0.93;;
17494;SDS011;8864;51.970;4.614;2022-12-07T02:13:08;2.05;;;0.73;;
17494;SDS011;8864;51.970;4.614;2022-12-07T02:15:51;2.60;;;0.90;;
17494;SDS011;8864;51.970;4.614;2022-12-07T02:18:32;2.65;;;0.93;;
17494;SDS011;8864;51.970;4.614;2022-12-07T02:21:09;2.28;;;0.80;;
17494;SDS011;8864;51.970;4.614;2022-12-07T02:23:44;2.35;;;0.90;;
17494;SDS011;8864;51.970;4.614;2022-12-07T02:29:23;4.40;;;1.02;;
17494;SDS011;8864;51.970;4.614;2022-12-07T02:31:54;2.95;;;0.88;;
17494;SDS011;8864;51.970;4.614;2022-12-07T02:34:35;1.63;;;0.63;;
17494;SDS011;8864;51.970;4.614;2022-12-07T02:37:09;3.17;;;0.80;;
17494;SDS011;8864;51.970;4.614;2022-12-07T02:39:46;1.73;;;0.70;;
17494;SDS011;8864;51.970;4.614;2022-12-07T02:42:17;2.03;;;0.70;;
17494;SDS011;8864;51.970;4.614;2022-12-07T02:44:51;2.47;;;0.70;;
17494;SDS011;8864;51.970;4.614;2022-12-07T02:47:19;0.75;;;0.50;;
17494;SDS011;8864;51.970;4.614;2022-12-07T02:49:47;2.40;;;0.90;;
17494;SDS011;8864;51.970;4.614;2022-12-07T02:52:16;1.60;;;0.70;;
17494;SDS011;8864;51.970;4.614;2022-12-07T02:54:43;3.20;;;0.70;;
17494;SDS011;8864;51.970;4.614;2022-12-07T02:57:17;1.70;;;0.80;;
17494;SDS011;8864;51.970;4.614;2022-12-07T02:59:56;2.47;;;0.60;;
17494;SDS011;8864;51.970;4.614;2022-12-07T03:02:30;2.17;;;0.70;;
17494;SDS011;8864;51.970;4.614;2022-12-07T03:05:13;2.05;;;0.90;;
17494;SDS011;8864;51.970;4.614;2022-12-07T03:07:49;3.00;;;0.70;;
17494;SDS011;8864;51.970;4.614;2022-12-07T03:10:22;2.53;;;0.63;;
17494;SDS011;8864;51.970;4.614;2022-12-07T03:12:57;3.65;;;0.68;;
17494;SDS011;8864;51.970;4.614;2022-12-07T03:15:33;2.35;;;0.70;;
17494;SDS011;8864;51.970;4.614;2022-12-07T03:18:05;1.40;;;0.50;;
17494;SDS011;8864;51.970;4.614;2022-12-07T03:20:35;2.83;;;0.75;;
17494;SDS011;8864;51.970;4.614;2022-12-07T03:23:05;2.92;;;0.75;;
17494;SDS011;8864;51.970;4.614;2022-12-07T03:25:35;1.17;;;0.70;;
17494;SDS011;8864;51.970;4.614;2022-12-07T03:28:07;2.45;;;0.80;;
17494;SDS011;8864;51.970;4.614;2022-12-07T03:30:39;2.40;;;0.82;;
17494;SDS011;8864;51.970;4.614;2022-12-07T03:33:11;1.42;;;0.60;;
17494;SDS011;8864;51.970;4.614;2022-12-07T03:35:45;2.17;;;0.70;;
17494;SDS011;8864;51.970;4.614;2022-12-07T03:38:17;1.45;;;0.50;;
17494;SDS011;8864;51.970;4.614;2022-12-07T03:40:48;1.73;;;0.50;;
17494;SDS011;8864;51.970;4.614;2022-12-07T03:43:21;1.23;;;0.80;;
17494;SDS011;8864;51.970;4.614;2022-12-07T03:45:51;1.08;;;0.40;;
17494;SDS011;8864;51.970;4.614;2022-12-07T03:48:32;2.05;;;0.77;;
17494;SDS011;8864;51.970;4.614;2022-12-07T03:51:04;2.47;;;0.60;;
17494;SDS011;8864;51.970;4.614;2022-12-07T03:53:39;1.95;;;0.88;;
17494;SDS011;8864;51.970;4.614;2022-12-07T03:56:11;4.38;;;0.80;;
17494;SDS011;8864;51.970;4.614;2022-12-07T03:58:38;2.58;;;0.70;;
17494;SDS011;8864;51.970;4.614;2022-12-07T04:01:10;2.72;;;0.60;;
17494;SDS011;8864;51.970;4.614;2022-12-07T04:03:37;3.60;;;0.60;;
17494;SDS011;8864;51.970;4.614;2022-12-07T04:06:04;2.10;;;0.60;;
17494;SDS011;8864;51.970;4.614;2022-12-07T04:08:31;1.55;;;0.40;;
17494;SDS011;8864;51.970;4.614;2022-12-07T04:10:58;2.17;;;0.50;;
17494;SDS011;8864;51.970;4.614;2022-12-07T04:13:25;1.83;;;0.70;;
17494;SDS011;8864;51.970;4.614;2022-12-07T04:15:52;1.27;;;0.55;;
17494;SDS011;8864;51.970;4.614;2022-12-07T04:18:20;2.95;;;0.80;;
17494;SDS011;8864;51.970;4.614;2022-12-07T04:20:47;1.45;;;0.57;;
17494;SDS011;8864;51.970;4.614;2022-12-07T04:23:14;1.45;;;0.68;;
17494;SDS011;8864;51.970;4.614;2022-12-07T04:25:40;1.13;;;0.47;;
17494;SDS011;8864;51.970;4.614;2022-12-07T04:28:07;2.28;;;0.55;;
17494;SDS011;8864;51.970;4.614;2022-12-07T04:30:34;1.10;;;0.52;;
17494;SDS011;8864;51.970;4.614;2022-12-07T04:33:01;2.25;;;0.45;;
17494;SDS011;8864;51.970;4.614;2022-12-07T04:35:29;2.70;;;0.55;;
17494;SDS011;8864;51.970;4.614;2022-12-07T04:37:56;1.48;;;0.70;;
17494;SDS011;8864;51.970;4.614;2022-12-07T04:40:23;2.78;;;0.60;;
17494;SDS011;8864;51.970;4.614;2022-12-07T04:42:50;1.20;;;0.63;;
17494;SDS011;8864;51.970;4.614;2022-12-07T04:45:17;1.92;;;0.75;;
17494;SDS011;8864;51.970;4.614;2022-12-07T04:47:43;2.42;;;0.50;;
17494;SDS011;8864;51.970;4.614;2022-12-07T04:50:10;2.15;;;0.52;;
17494;SDS011;8864;51.970;4.614;2022-12-07T04:52:39;3.53;;;0.80;;
17494;SDS011;8864;51.970;4.614;2022-12-07T04:55:06;3.92;;;0.60;;
17494;SDS011;8864;51.970;4.614;2022-12-07T04:57:33;1.88;;;0.50;;
17494;SDS011;8864;51.970;4.614;2022-12-07T05:00:00;1.52;;;0.57;;
17494;SDS011;8864;51.970;4.614;2022-12-07T05:02:27;0.63;;;0.50;;
17494;SDS011;8864;51.970;4.614;2022-12-07T05:04:54;1.45;;;0.47;;
17494;SDS011;8864;51.970;4.614;2022-12-07T05:07:21;1.70;;;0.70;;
17494;SDS011;8864;51.970;4.614;2022-12-07T05:09:49;1.83;;;0.60;;
17494;SDS011;8864;51.970;4.614;2022-12-07T05:12:16;2.10;;;0.68;;
17494;SDS011;8864;51.970;4.614;2022-12-07T05:14:43;1.45;;;0.57;;
17494;SDS011;8864;51.970;4.614;2022-12-07T05:17:10;4.10;;;0.70;;
17494;SDS011;8864;51.970;4.614;2022-12-07T05:19:37;2.38;;;0.60;;
17494;SDS011;8864;51.970;4.614;2022-12-07T05:22:03;2.63;;;0.77;;
17494;SDS011;8864;51.970;4.614;2022-12-07T05:24:30;12.02;;;1.20;;
17494;SDS011;8864;51.970;4.614;2022-12-07T05:26:58;4.40;;;0.90;;
17494;SDS011;8864;51.970;4.614;2022-12-07T05:29:25;273.63;;;35.30;;
17494;SDS011;8864;51.970;4.614;2022-12-07T05:31:52;87.00;;;12.98;;
17494;SDS011;8864;51.970;4.614;2022-12-07T05:34:19;105.00;;;13.40;;
17494;SDS011;8864;51.970;4.614;2022-12-07T05:36:46;87.25;;;12.82;;
17494;SDS011;8864;51.970;4.614;2022-12-07T05:39:13;71.78;;;11.30;;
17494;SDS011;8864;51.970;4.614;2022-12-07T05:41:40;73.30;;;11.10;;
17494;SDS011;8864;51.970;4.614;2022-12-07T05:44:26;53.60;;;9.48;;
17494;SDS011;8864;51.970;4.614;2022-12-07T05:46:53;30.05;;;7.25;;
17494;SDS011;8864;51.970;4.614;2022-12-07T05:49:19;52.47;;;8.38;;
17494;SDS011;8864;51.970;4.614;2022-12-07T05:51:46;42.60;;;8.45;;
17494;SDS011;8864;51.970;4.614;2022-12-07T05:54:13;35.47;;;7.40;;
17494;SDS011;8864;51.970;4.614;2022-12-07T05:56:40;32.17;;;6.47;;
17494;SDS011;8864;51.970;4.614;2022-12-07T05:59:07;28.83;;;6.28;;
17494;SDS011;8864;51.970;4.614;2022-12-07T06:01:51;33.20;;;6.75;;
17494;SDS011;8864;51.970;4.614;2022-12-07T06:04:18;32.33;;;6.05;;
17494;SDS011;8864;51.970;4.614;2022-12-07T06:06:46;42.33;;;5.82;;
17494;SDS011;8864;51.970;4.614;2022-12-07T06:09:13;30.75;;;5.38;;
17494;SDS011;8864;51.970;4.614;2022-12-07T06:11:40;29.52;;;5.28;;
17494;SDS011;8864;51.970;4.614;2022-12-07T06:14:24;22.42;;;5.03;;
17494;SDS011;8864;51.970;4.614;2022-12-07T06:16:53;18.00;;;4.72;;
17494;SDS011;8864;51.970;4.614;2022-12-07T06:19:20;16.83;;;4.20;;
17494;SDS011;8864;51.970;4.614;2022-12-07T06:21:47;23.17;;;4.45;;
17494;SDS011;8864;51.970;4.614;2022-12-07T06:24:14;20.25;;;4.70;;
17494;SDS011;8864;51.970;4.614;2022-12-07T06:26:42;16.83;;;3.95;;
17494;SDS011;8864;51.970;4.614;2022-12-07T06:29:09;12.73;;;3.63;;
17494;SDS011;8864;51.970;4.614;2022-12-07T06:31:37;11.63;;;3.22;;
17494;SDS011;8864;51.970;4.614;2022-12-07T06:34:06;15.20;;;3.17;;
17494;SDS011;8864;51.970;4.614;2022-12-07T06:36:35;12.52;;;3.15;;
17494;SDS011;8864;51.970;4.614;2022-12-07T06:39:03;11.95;;;2.80;;
17494;SDS011;8864;51.970;4.614;2022-12-07T06:41:31;15.25;;;3.30;;
17494;SDS011;8864;51.970;4.614;2022-12-07T06:43:58;14.27;;;3.40;;
17494;SDS011;8864;51.970;4.614;2022-12-07T06:46:25;7.47;;;2.58;;
17494;SDS011;8864;51.970;4.614;2022-12-07T06:48:52;15.07;;;2.83;;
17494;SDS011;8864;51.970;4.614;2022-12-07T06:51:20;11.60;;;2.45;;
17494;SDS011;8864;51.970;4.614;2022-12-07T06:53:47;15.48;;;2.88;;
17494;SDS011;8864;51.970;4.614;2022-12-07T06:56:14;10.38;;;2.83;;
17494;SDS011;8864;51.970;4.614;2022-12-07T06:58:41;9.68;;;2.30;;
17494;SDS011;8864;51.970;4.614;2022-12-07T07:01:09;7.60;;;2.53;;
17494;SDS011;8864;51.970;4.614;2022-12-07T07:03:36;10.45;;;2.35;;
17494;SDS011;8864;51.970;4.614;2022-12-07T07:06:03;9.27;;;2.42;;
17494;SDS011;8864;51.970;4.614;2022-12-07T07:08:32;8.85;;;2.22;;
17494;SDS011;8864;51.970;4.614;2022-12-07T07:10:59;9.77;;;2.20;;
17494;SDS011;8864;51.970;4.614;2022-12-07T07:13:26;8.77;;;2.10;;
17494;SDS011;8864;51.970;4.614;2022-12-07T07:15:53;9.65;;;2.70;;
17494;SDS011;8864;51.970;4.614;2022-12-07T07:18:21;8.57;;;2.00;;
17494;SDS011;8864;51.970;4.614;2022-12-07T07:20:48;6.55;;;1.75;;
17494;SDS011;8864;51.970;4.614;2022-12-07T07:23:16;6.25;;;1.80;;
17494;SDS011;8864;51.970;4.614;2022-12-07T07:25:45;5.57;;;1.90;;
17494;SDS011;8864;51.970;4.614;2022-12-07T07:28:12;7.63;;;2.08;;
17494;SDS011;8864;51.970;4.614;2022-12-07T07:30:39;8.85;;;2.10;;
17494;SDS011;8864;51.970;4.614;2022-12-07T07:33:06;5.25;;;1.65;;
17494;SDS011;8864;51.970;4.614;2022-12-07T07:35:33;5.30;;;1.77;;
17494;SDS011;8864;51.970;4.614;2022-12-07T07:38:00;6.43;;;1.88;;
17494;SDS011;8864;51.970;4.614;2022-12-07T07:40:28;4.68;;;1.90;;
17494;SDS011;8864;51.970;4.614;2022-12-07T07:42:56;8.38;;;2.42;;
17494;SDS011;8864;51.970;4.614;2022-12-07T07:45:25;3.78;;;1.60;;
17494;SDS011;8864;51.970;4.614;2022-12-07T07:47:53;8.40;;;1.92;;
17494;SDS011;8864;51.970;4.614;2022-12-07T07:50:20;8.10;;;1.88;;
17494;SDS011;8864;51.970;4.614;2022-12-07T07:52:47;6.53;;;1.85;;
17494;SDS011;8864;51.970;4.614;2022-12-07T07:55:14;6.03;;;1.27;;
17494;SDS011;8864;51.970;4.614;2022-12-07T07:57:41;5.28;;;1.75;;
17494;SDS011;8864;51.970;4.614;2022-12-07T08:00:11;6.53;;;1.60;;
17494;SDS011;8864;51.970;4.614;2022-12-07T08:02:39;4.72;;;1.80;;
17494;SDS011;8864;51.970;4.614;2022-12-07T08:05:06;5.00;;;1.40;;
17494;SDS011;8864;51.970;4.614;2022-12-07T08:07:33;3.45;;;1.20;;
17494;SDS011;8864;51.970;4.614;2022-12-07T08:10:00;5.63;;;1.50;;
17494;SDS011;8864;51.970;4.614;2022-12-07T08:12:27;4.15;;;1.33;;
17494;SDS011;8864;51.970;4.614;2022-12-07T08:14:54;4.22;;;1.20;;
17494;SDS011;8864;51.970;4.614;2022-12-07T08:17:22;3.75;;;1.25;;
17494;SDS011;8864;51.970;4.614;2022-12-07T08:19:49;3.80;;;1.45;;
17494;SDS011;8864;51.970;4.614;2022-12-07T08:22:18;4.78;;;1.40;;
17494;SDS011;8864;51.970;4.614;2022-12-07T08:24:45;4.72;;;1.50;;
17494;SDS011;8864;51.970;4.614;2022-12-07T08:27:12;2.42;;;1.05;;
17494;SDS011;8864;51.970;4.614;2022-12-07T08:29:39;3.35;;;1.30;;
17494;SDS011;8864;51.970;4.614;2022-12-07T08:32:06;2.30;;;1.17;;
17494;SDS011;8864;51.970;4.614;2022-12-07T08:34:34;4.38;;;1.30;;
17494;SDS011;8864;51.970;4.614;2022-12-07T08:37:01;3.72;;;1.63;;
17494;SDS011;8864;51.970;4.614;2022-12-07T08:39:28;4.50;;;1.60;;
17494;SDS011;8864;51.970;4.614;2022-12-07T08:41:55;4.40;;;1.33;;
17494;SDS011;8864;51.970;4.614;2022-12-07T08:44:22;6.65;;;1.63;;
17494;SDS011;8864;51.970;4.614;2022-12-07T08:46:50;3.22;;;1.40;;
17494;SDS011;8864;51.970;4.614;2022-12-07T08:49:19;4.57;;;1.30;;
17494;SDS011;8864;51.970;4.614;2022-12-07T08:51:50;4.70;;;1.40;;
17494;SDS011;8864;51.970;4.614;2022-12-07T08:54:17;2.67;;;1.30;;
17494;SDS011;8864;51.970;4.614;2022-12-07T08:56:45;3.72;;;1.42;;
17494;SDS011;8864;51.970;4.614;2022-12-07T08:59:14;2.97;;;1.38;;
17494;SDS011;8864;51.970;4.614;2022-12-07T09:01:43;4.35;;;1.38;;
17494;SDS011;8864;51.970;4.614;2022-12-07T09:04:10;2.30;;;1.38;;
17494;SDS011;8864;51.970;4.614;2022-12-07T09:06:37;4.85;;;1.42;;
17494;SDS011;8864;51.970;4.614;2022-12-07T09:09:06;4.80;;;1.30;;
17494;SDS011;8864;51.970;4.614;2022-12-07T09:11:35;3.08;;;1.17;;
17494;SDS011;8864;51.970;4.614;2022-12-07T09:14:02;3.63;;;1.30;;
17494;SDS011;8864;51.970;4.614;2022-12-07T09:16:28;2.38;;;1.33;;
17494;SDS011;8864;51.970;4.614;2022-12-07T09:18:55;4.53;;;1.20;;
17494;SDS011;8864;51.970;4.614;2022-12-07T09:21:22;3.38;;;1.00;;
17494;SDS011;8864;51.970;4.614;2022-12-07T09:23:49;3.13;;;1.27;;
17494;SDS011;8864;51.970;4.614;2022-12-07T09:26:17;2.40;;;1.20;;
17494;SDS011;8864;51.970;4.614;2022-12-07T09:28:44;1.60;;;1.00;;
17494;SDS011;8864;51.970;4.614;2022-12-07T09:31:11;3.35;;;1.27;;
17494;SDS011;8864;51.970;4.614;2022-12-07T09:33:38;1.80;;;1.00;;
17494;SDS011;8864;51.970;4.614;2022-12-07T09:36:06;2.55;;;1.25;;
17494;SDS011;8864;51.970;4.614;2022-12-07T09:38:34;2.58;;;1.10;;
17494;SDS011;8864;51.970;4.614;2022-12-07T09:41:03;2.65;;;0.90;;
17494;SDS011;8864;51.970;4.614;2022-12-07T09:43:33;1.98;;;0.95;;
17494;SDS011;8864;51.970;4.614;2022-12-07T09:46:02;2.53;;;1.10;;
17494;SDS011;8864;51.970;4.614;2022-12-07T09:48:31;1.88;;;1.13;;
17494;SDS011;8864;51.970;4.614;2022-12-07T09:51:02;5.70;;;1.38;;
17494;SDS011;8864;51.970;4.614;2022-12-07T09:53:37;1.45;;;0.75;;
17494;SDS011;8864;51.970;4.614;2022-12-07T09:56:05;5.03;;;1.38;;
17494;SDS011;8864;51.970;4.614;2022-12-07T09:58:34;4.47;;;1.20;;
17494;SDS011;8864;51.970;4.614;2022-12-07T10:01:05;2.58;;;1.05;;
17494;SDS011;8864;51.970;4.614;2022-12-07T10:03:38;1.73;;;1.10;;
17494;SDS011;8864;51.970;4.614;2022-12-07T10:06:09;1.70;;;0.95;;
17494;SDS011;8864;51.970;4.614;2022-12-07T10:08:38;3.08;;;1.20;;
17494;SDS011;8864;51.970;4.614;2022-12-07T10:11:06;2.63;;;1.10;;
17494;SDS011;8864;51.970;4.614;2022-12-07T10:13:37;3.40;;;0.90;;
17494;SDS011;8864;51.970;4.614;2022-12-07T10:16:05;1.25;;;0.80;;
17494;SDS011;8864;51.970;4.614;2022-12-07T10:18:57;3.58;;;0.90;;
17494;SDS011;8864;51.970;4.614;2022-12-07T10:21:58;1.15;;;0.80;;
17494;SDS011;8864;51.970;4.614;2022-12-07T10:24:27;1.35;;;0.70;;
17494;SDS011;8864;51.970;4.614;2022-12-07T10:26:54;2.05;;;1.00;;
17494;SDS011;8864;51.970;4.614;2022-12-07T10:29:24;1.73;;;0.82;;
17494;SDS011;8864;51.970;4.614;2022-12-07T10:31:56;1.98;;;0.90;;
17494;SDS011;8864;51.970;4.614;2022-12-07T10:34:25;2.75;;;0.75;;
17494;SDS011;8864;51.970;4.614;2022-12-07T10:37:06;1.67;;;0.77;;
17494;SDS011;8864;51.970;4.614;2022-12-07T10:39:40;1.95;;;0.98;;
17494;SDS011;8864;51.970;4.614;2022-12-07T10:42:15;1.65;;;0.80;;
17494;SDS011;8864;51.970;4.614;2022-12-07T10:44:45;1.95;;;0.85;;
17494;SDS011;8864;51.970;4.614;2022-12-07T10:47:29;3.30;;;1.00;;
17494;SDS011;8864;51.970;4.614;2022-12-07T10:53:02;3.55;;;0.77;;
17494;SDS011;8864;51.970;4.614;2022-12-07T10:55:55;2.40;;;0.80;;
17494;SDS011;8864;51.970;4.614;2022-12-07T10:58:32;1.33;;;0.80;;
17494;SDS011;8864;51.970;4.614;2022-12-07T11:01:15;2.55;;;0.82;;
17494;SDS011;8864;51.970;4.614;2022-12-07T11:03:50;1.60;;;0.80;;
17494;SDS011;8864;51.970;4.614;2022-12-07T11:06:27;1.25;;;0.70;;
17494;SDS011;8864;51.970;4.614;2022-12-07T11:09:03;1.45;;;0.70;;
17494;SDS011;8864;51.970;4.614;2022-12-07T11:11:48;1.67;;;0.80;;
17494;SDS011;8864;51.970;4.614;2022-12-07T11:14:26;1.63;;;0.85;;
17494;SDS011;8864;51.970;4.614;2022-12-07T11:17:01;1.17;;;0.68;;
17494;SDS011;8864;51.970;4.614;2022-12-07T11:19:39;1.60;;;0.60;;
17494;SDS011;8864;51.970;4.614;2022-12-07T11:22:23;2.08;;;0.90;;
17494;SDS011;8864;51.970;4.614;2022-12-07T11:25:02;1.83;;;0.70;;
17494;SDS011;8864;51.970;4.614;2022-12-07T11:27:44;1.63;;;0.75;;
17494;SDS011;8864;51.970;4.614;2022-12-07T11:30:22;1.55;;;0.88;;
17494;SDS011;8864;51.970;4.614;2022-12-07T11:33:02;1.40;;;0.70;;
17494;SDS011;8864;51.970;4.614;2022-12-07T11:35:41;0.80;;;0.60;;
17494;SDS011;8864;51.970;4.614;2022-12-07T11:38:14;1.88;;;0.90;;
17494;SDS011;8864;51.970;4.614;2022-12-07T11:40:43;1.17;;;0.60;;
17494;SDS011;8864;51.970;4.614;2022-12-07T11:43:15;1.25;;;0.70;;
17494;SDS011;8864;51.970;4.614;2022-12-07T11:45:50;1.05;;;0.55;;
17494;SDS011;8864;51.970;4.614;2022-12-07T11:48:24;0.95;;;0.55;;
17494;SDS011;8864;51.970;4.614;2022-12-07T11:50:58;1.98;;;0.80;;
17494;SDS011;8864;51.970;4.614;2022-12-07T11:53:30;1.73;;;0.70;;
17494;SDS011;8864;51.970;4.614;2022-12-07T11:56:03;2.45;;;0.90;;
17494;SDS011;8864;51.970;4.614;2022-12-07T11:58:39;2.72;;;0.75;;
17494;SDS011;8864;51.970;4.614;2022-12-07T12:01:26;1.98;;;0.80;;
17494;SDS011;8864;51.970;4.614;2022-12-07T12:04:05;2.65;;;0.60;;
17494;SDS011;8864;51.970;4.614;2022-12-07T12:06:53;0.77;;;0.68;;
17494;SDS011;8864;51.970;4.614;2022-12-07T12:09:21;0.95;;;0.60;;
17494;SDS011;8864;51.970;4.614;2022-12-07T12:14:48;1.52;;;0.65;;
17494;SDS011;8864;51.970;4.614;2022-12-07T12:17:38;0.68;;;0.50;;
17494;SDS011;8864;51.970;4.614;2022-12-07T12:20:17;1.15;;;0.70;;
17494;SDS011;8864;51.970;4.614;2022-12-07T12:22:49;1.08;;;0.70;;
17494;SDS011;8864;51.970;4.614;2022-12-07T12:25:21;1.17;;;0.60;;
17494;SDS011;8864;51.970;4.614;2022-12-07T12:27:50;0.95;;;0.60;;
17494;SDS011;8864;51.970;4.614;2022-12-07T12:30:26;1.15;;;0.50;;
17494;SDS011;8864;51.970;4.614;2022-12-07T12:33:03;1.90;;;0.63;;
17494;SDS011;8864;51.970;4.614;2022-12-07T12:35:33;1.30;;;0.60;;
17494;SDS011;8864;51.970;4.614;2022-12-07T12:40:52;0.60;;;0.50;;
17494;SDS011;8864;51.970;4.614;2022-12-07T12:46:35;0.68;;;0.50;;
17494;SDS011;8864;51.970;4.614;2022-12-07T12:55:17;1.42;;;0.50;;
17494;SDS011;8864;51.970;4.614;2022-12-07T12:57:47;0.68;;;0.50;;
17494;SDS011;8864;51.970;4.614;2022-12-07T13:00:35;0.90;;;0.50;;
17494;SDS011;8864;51.970;4.614;2022-12-07T13:03:04;1.85;;;0.50;;
17494;SDS011;8864;51.970;4.614;2022-12-07T13:05:31;1.58;;;0.55;;
17494;SDS011;8864;51.970;4.614;2022-12-07T13:07:59;1.25;;;0.43;;
17494;SDS011;8864;51.970;4.614;2022-12-07T13:10:39;1.00;;;0.65;;
17494;SDS011;8864;51.970;4.614;2022-12-07T13:13:28;0.40;;;0.40;;
17494;SDS011;8864;51.970;4.614;2022-12-07T13:22:39;0.60;;;0.40;;
17494;SDS011;8864;51.970;4.614;2022-12-07T13:25:10;1.60;;;0.70;;
17494;SDS011;8864;51.970;4.614;2022-12-07T13:27:41;0.90;;;0.57;;
17494;SDS011;8864;51.970;4.614;2022-12-07T13:30:14;1.33;;;0.47;;
17494;SDS011;8864;51.970;4.614;2022-12-07T13:32:43;0.93;;;0.40;;
17494;SDS011;8864;51.970;4.614;2022-12-07T13:35:33;0.60;;;0.50;;
17494;SDS011;8864;51.970;4.614;2022-12-07T13:38:02;0.75;;;0.60;;
17494;SDS011;8864;51.970;4.614;2022-12-07T13:40:32;1.23;;;0.80;;
17494;SDS011;8864;51.970;4.614;2022-12-07T13:43:01;1.10;;;0.50;;
17494;SDS011;8864;51.970;4.614;2022-12-07T13:45:30;0.60;;;0.40;;
17494;SDS011;8864;51.970;4.614;2022-12-07T13:48:14;0.57;;;0.45;;
17494;SDS011;8864;51.970;4.614;2022-12-07T13:50:52;1.27;;;0.60;;
17494;SDS011;8864;51.970;4.614;2022-12-07T13:53:21;2.25;;;0.50;;
17494;SDS011;8864;51.970;4.614;2022-12-07T13:55:49;1.65;;;0.50;;
17494;SDS011;8864;51.970;4.614;2022-12-07T13:58:17;0.90;;;0.40;;
17494;SDS011;8864;51.970;4.614;2022-12-07T14:00:44;0.30;;;0.30;;
17494;SDS011;8864;51.970;4.614;2022-12-07T14:03:28;0.85;;;0.50;;
17494;SDS011;8864;51.970;4.614;2022-12-07T14:11:34;0.80;;;0.45;;
17494;SDS011;8864;51.970;4.614;2022-12-07T14:14:03;0.90;;;0.50;;
17494;SDS011;8864;51.970;4.614;2022-12-07T14:16:32;0.68;;;0.40;;
17494;SDS011;8864;51.970;4.614;2022-12-07T14:19:00;0.73;;;0.40;;
17494;SDS011;8864;51.970;4.614;2022-12-07T14:21:29;0.50;;;0.40;;
17494;SDS011;8864;51.970;4.614;2022-12-07T14:24:14;1.02;;;0.47;;
17494;SDS011;8864;51.970;4.614;2022-12-07T14:26:43;0.35;;;0.32;;
17494;SDS011;8864;51.970;4.614;2022-12-07T14:29:29;0.57;;;0.40;;
17494;SDS011;8864;51.970;4.614;2022-12-07T14:32:10;0.55;;;0.47;;
17494;SDS011;8864;51.970;4.614;2022-12-07T14:34:53;0.32;;;0.20;;
17494;SDS011;8864;51.970;4.614;2022-12-07T14:37:20;0.80;;;0.40;;
17494;SDS011;8864;51.970;4.614;2022-12-07T14:39:47;1.75;;;0.60;;
17494;SDS011;8864;51.970;4.614;2022-12-07T14:42:14;1.40;;;0.60;;
17494;SDS011;8864;51.970;4.614;2022-12-07T14:44:43;1.63;;;0.50;;
17494;SDS011;8864;51.970;4.614;2022-12-07T14:47:10;0.60;;;0.40;;
17494;SDS011;8864;51.970;4.614;2022-12-07T14:49:37;0.70;;;0.50;;
17494;SDS011;8864;51.970;4.614;2022-12-07T14:52:04;0.63;;;0.50;;
17494;SDS011;8864;51.970;4.614;2022-12-07T14:54:37;0.90;;;0.30;;
17494;SDS011;8864;51.970;4.614;2022-12-07T14:57:04;0.85;;;0.40;;
17494;SDS011;8864;51.970;4.614;2022-12-07T14:59:33;0.70;;;0.35;;
17494;SDS011;8864;51.970;4.614;2022-12-07T15:02:02;0.73;;;0.50;;
17494;SDS011;8864;51.970;4.614;2022-12-07T15:04:29;2.25;;;0.30;;
17494;SDS011;8864;51.970;4.614;2022-12-07T15:06:56;0.82;;;0.40;;
17494;SDS011;8864;51.970;4.614;2022-12-07T15:09:24;0.40;;;0.35;;
17494;SDS011;8864;51.970;4.614;2022-12-07T15:11:50;1.83;;;0.47;;
17494;SDS011;8864;51.970;4.614;2022-12-07T15:14:17;1.58;;;0.50;;
17494;SDS011;8864;51.970;4.614;2022-12-07T15:16:44;0.40;;;0.30;;
17494;SDS011;8864;51.970;4.614;2022-12-07T15:19:16;1.67;;;0.50;;
17494;SDS011;8864;51.970;4.614;2022-12-07T15:21:44;0.65;;;0.40;;
17494;SDS011;8864;51.970;4.614;2022-12-07T15:24:11;2.40;;;0.57;;
17494;SDS011;8864;51.970;4.614;2022-12-07T15:26:39;0.65;;;0.45;;
17494;SDS011;8864;51.970;4.614;2022-12-07T15:29:06;1.40;;;0.50;;
17494;SDS011;8864;51.970;4.614;2022-12-07T15:31:34;1.40;;;0.47;;
17494;SDS011;8864;51.970;4.614;2022-12-07T15:34:01;0.40;;;0.40;;
17494;SDS011;8864;51.970;4.614;2022-12-07T15:36:30;1.75;;;0.50;;
17494;SDS011;8864;51.970;4.614;2022-12-07T15:38:58;0.30;;;0.30;;
17494;SDS011;8864;51.970;4.614;2022-12-07T15:41:25;0.60;;;0.45;;
17494;SDS011;8864;51.970;4.614;2022-12-07T15:43:52;0.85;;;0.32;;
17494;SDS011;8864;51.970;4.614;2022-12-07T15:46:38;0.60;;;0.45;;
17494;SDS011;8864;51.970;4.614;2022-12-07T15:49:08;0.40;;;0.35;;
17494;SDS011;8864;51.970;4.614;2022-12-07T15:51:39;1.00;;;0.30;;
17494;SDS011;8864;51.970;4.614;2022-12-07T15:54:06;1.10;;;0.50;;